Time;durP1;ratioP1;P1;durP2;ratioP2;P2;SDS_P1;SDS_P2;PMS_P1;PMS_P2;Temp;Humidity;BMP_temperature;BMP_pressure;BME280_temperature;BME280_humidity;BME280_pressure;Samples;Min_cycle;Max_cycle;Signal;HPM_P1;HPM_P2
2020/12/26 00:01:15;;;;;;;15.55;7.78;;;3.70;99.20;;;;;;4991925;28;20479;-69
2020/12/26 00:03:40;;;;;;;17.10;8.23;;;3.50;98.50;;;;;;4991592;28;20038;-70
2020/12/26 00:06:07;;;;;;;18.25;7.82;;;3.40;98.60;;;;;;4991053;28;20080;-70
2020/12/26 00:08:34;;;;;;;16.30;7.72;;;3.50;98.70;;;;;;4992813;28;20038;-69
2020/12/26 00:11:06;;;;;;;16.85;8.63;;;3.40;98.70;;;;;;4991237;28;20057;-70
2020/12/26 00:13:32;;;;;;;21.73;7.95;;;3.50;98.80;;;;;;4992132;28;20054;-68
2020/12/26 00:15:58;;;;;;;15.70;7.80;;;3.50;98.70;;;;;;4991065;28;20031;-69
2020/12/26 00:18:23;;;;;;;16.90;7.97;;;3.50;98.60;;;;;;4991826;28;20057;-70
2020/12/26 00:20:49;;;;;;;14.82;7.18;;;3.50;98.70;;;;;;4993639;28;20105;-70
2020/12/26 00:23:15;;;;;;;15.57;7.68;;;3.40;98.50;;;;;;4993598;28;20098;-69
2020/12/26 00:25:41;;;;;;;15.93;7.72;;;3.40;98.50;;;;;;4995007;28;20035;-69
2020/12/26 00:28:07;;;;;;;17.58;7.95;;;3.40;98.60;;;;;;4995075;28;20062;-69
2020/12/26 00:30:33;;;;;;;18.27;8.05;;;3.40;98.70;;;;;;4996200;28;20046;-69
2020/12/26 00:32:58;;;;;;;15.40;8.55;;;3.40;98.60;;;;;;4997628;28;20048;-69
2020/12/26 00:35:24;;;;;;;17.50;7.43;;;3.40;98.80;;;;;;4996237;28;20040;-69
2020/12/26 00:37:51;;;;;;;14.00;7.38;;;3.40;98.70;;;;;;4995902;28;20446;-69
2020/12/26 00:40:17;;;;;;;17.75;8.38;;;3.40;98.70;;;;;;4996066;28;20034;-70
2020/12/26 00:42:43;;;;;;;14.18;7.57;;;3.40;98.70;;;;;;4995825;28;20042;-70
2020/12/26 00:45:09;;;;;;;21.60;8.70;;;3.40;98.80;;;;;;4995937;28;20026;-68
2020/12/26 00:47:35;;;;;;;18.30;8.88;;;3.40;99.00;;;;;;4996244;28;20448;-69
2020/12/26 00:50:01;;;;;;;16.40;8.35;;;3.40;99.00;;;;;;4995949;28;20471;-69
2020/12/26 00:52:28;;;;;;;19.02;9.25;;;3.50;98.90;;;;;;4990838;28;20034;-69
2020/12/26 00:54:54;;;;;;;22.35;9.55;;;3.50;98.80;;;;;;4995563;28;20050;-70
2020/12/26 00:57:19;;;;;;;24.30;8.55;;;3.50;98.90;;;;;;4995383;28;20195;-69
2020/12/26 00:59:45;;;;;;;14.95;8.68;;;3.50;98.90;;;;;;4995942;28;20022;-69
2020/12/26 01:02:11;;;;;;;14.30;7.70;;;3.50;98.80;;;;;;4995459;28;20353;-70
2020/12/26 01:04:36;;;;;;;22.73;9.40;;;3.60;98.80;;;;;;4995691;28;20037;-69
2020/12/26 01:07:02;;;;;;;22.63;8.80;;;3.50;98.80;;;;;;4995632;28;20129;-70
2020/12/26 01:09:28;;;;;;;22.45;9.18;;;3.50;98.80;;;;;;4993895;28;20031;-70
2020/12/26 01:11:53;;;;;;;16.95;9.25;;;3.50;98.90;;;;;;4996910;28;20032;-69
2020/12/26 01:14:19;;;;;;;21.58;8.82;;;3.50;98.90;;;;;;4995243;28;20101;-69
2020/12/26 01:16:51;;;;;;;18.73;8.38;;;3.50;98.90;;;;;;4994987;28;20480;-69
2020/12/26 01:19:18;;;;;;;20.33;8.77;;;3.40;98.80;;;;;;4994897;28;20468;-69
2020/12/26 01:21:52;;;;;;;18.48;8.80;;;3.40;98.90;;;;;;4995267;28;20476;-69
2020/12/26 01:24:18;;;;;;;18.30;8.65;;;3.50;99.00;;;;;;4995220;28;20091;-70
2020/12/26 01:26:48;;;;;;;23.70;9.70;;;3.50;98.90;;;;;;4995781;28;20117;-70
2020/12/26 01:29:14;;;;;;;20.25;8.82;;;3.50;99.10;;;;;;4994737;28;20073;-70
2020/12/26 01:31:41;;;;;;;19.73;9.15;;;3.50;99.00;;;;;;4994685;28;20105;-70
2020/12/26 01:34:07;;;;;;;18.95;8.77;;;3.50;98.80;;;;;;4994704;28;20030;-69
2020/12/26 01:36:32;;;;;;;25.48;8.73;;;3.40;98.80;;;;;;4994374;28;20444;-70
2020/12/26 01:38:58;;;;;;;18.73;9.48;;;3.50;98.80;;;;;;4995156;28;20137;-70
2020/12/26 01:41:24;;;;;;;23.98;9.75;;;3.40;99.10;;;;;;4994727;28;20038;-69
2020/12/26 01:44:08;;;;;;;17.05;8.60;;;3.50;99.10;;;;;;4994982;28;20449;-69
2020/12/26 01:46:33;;;;;;;19.50;9.20;;;3.50;99.00;;;;;;4993360;28;20465;-69
2020/12/26 01:49:00;;;;;;;24.92;10.30;;;3.60;99.10;;;;;;4994608;28;20077;-70
2020/12/26 01:51:30;;;;;;;22.05;8.57;;;3.50;99.10;;;;;;4993607;28;20030;-68
2020/12/26 01:53:56;;;;;;;19.58;9.88;;;3.60;99.00;;;;;;4996191;28;20030;-69
2020/12/26 01:56:22;;;;;;;25.67;9.88;;;3.60;99.20;;;;;;4994382;28;20056;-69
2020/12/26 01:58:48;;;;;;;20.50;9.30;;;3.60;99.00;;;;;;4994619;28;20401;-70
2020/12/26 02:01:13;;;;;;;19.70;9.13;;;3.70;99.10;;;;;;4994524;28;20432;-70
2020/12/26 02:03:42;;;;;;;20.92;9.48;;;3.60;99.10;;;;;;4993408;28;20038;-70
2020/12/26 02:06:09;;;;;;;18.95;10.13;;;3.60;99.10;;;;;;4993256;28;20495;-70
2020/12/26 02:08:36;;;;;;;16.63;8.50;;;3.70;99.20;;;;;;4995976;28;20022;-69
2020/12/26 02:11:05;;;;;;;24.50;9.32;;;3.80;99.20;;;;;;4994320;28;20048;-69
2020/12/26 02:13:32;;;;;;;19.40;8.90;;;3.80;99.20;;;;;;4994381;28;20456;-70
2020/12/26 02:16:02;;;;;;;26.00;9.55;;;3.80;99.20;;;;;;4994388;28;20575;-70
2020/12/26 02:18:28;;;;;;;20.98;8.77;;;3.80;99.40;;;;;;4994172;28;20125;-70
2020/12/26 02:20:54;;;;;;;19.50;9.05;;;3.80;99.40;;;;;;4995611;28;20168;-70
2020/12/26 02:23:20;;;;;;;25.45;9.60;;;3.90;99.40;;;;;;4993828;28;20042;-70
2020/12/26 02:25:46;;;;;;;19.58;9.43;;;3.90;99.30;;;;;;4994069;28;20511;-69
2020/12/26 02:28:11;;;;;;;20.30;9.45;;;3.90;99.30;;;;;;4993996;28;20129;-69
2020/12/26 02:30:39;;;;;;;28.42;10.82;;;4.00;99.40;;;;;;4993965;28;20026;-70
2020/12/26 02:33:04;;;;;;;17.67;8.27;;;3.90;99.30;;;;;;4993877;28;20026;-70
2020/12/26 02:35:30;;;;;;;28.95;10.07;;;3.90;99.40;;;;;;4995317;28;20029;-70
2020/12/26 02:37:55;;;;;;;18.50;9.07;;;4.00;99.40;;;;;;4993770;28;20042;-70
2020/12/26 02:40:21;;;;;;;21.42;9.02;;;4.00;99.40;;;;;;4993675;28;20039;-70
2020/12/26 02:42:47;;;;;;;20.35;9.05;;;4.00;99.40;;;;;;4993911;28;20122;-70
2020/12/26 02:45:12;;;;;;;26.38;9.52;;;4.10;99.50;;;;;;4991898;28;20057;-70
2020/12/26 02:47:38;;;;;;;19.55;9.23;;;4.10;99.60;;;;;;4994788;28;20026;-69
2020/12/26 02:50:04;;;;;;;21.80;8.70;;;4.10;99.50;;;;;;4992609;28;20038;-68
2020/12/26 02:52:29;;;;;;;19.50;9.38;;;4.10;99.50;;;;;;4993393;28;20110;-69
2020/12/26 02:54:55;;;;;;;23.70;9.63;;;4.20;99.40;;;;;;4993050;28;20448;-70
2020/12/26 02:57:21;;;;;;;20.95;8.88;;;4.10;99.40;;;;;;4993224;28;20050;-69
2020/12/26 02:59:46;;;;;;;20.48;9.48;;;4.20;99.40;;;;;;4994795;28;20076;-70
2020/12/26 03:02:12;;;;;;;18.92;9.35;;;4.30;99.40;;;;;;4993205;28;20038;-69
2020/12/26 03:04:37;;;;;;;21.67;9.27;;;4.30;99.30;;;;;;4992412;28;20042;-69
2020/12/26 03:07:03;;;;;;;18.02;8.63;;;4.40;99.40;;;;;;4993345;28;20049;-69
2020/12/26 03:09:29;;;;;;;21.17;8.18;;;4.40;99.20;;;;;;4992840;28;20030;-69
2020/12/26 03:11:55;;;;;;;24.33;9.48;;;4.30;99.20;;;;;;4994764;28;20027;-70
2020/12/26 03:14:20;;;;;;;21.27;9.05;;;4.40;99.30;;;;;;4993049;28;20041;-69
2020/12/26 03:16:46;;;;;;;23.63;9.23;;;4.40;99.20;;;;;;4993258;28;20037;-69
2020/12/26 03:19:12;;;;;;;13.63;7.78;;;4.50;99.20;;;;;;4992986;28;20053;-69
2020/12/26 03:21:37;;;;;;;17.60;7.30;;;4.50;99.20;;;;;;4993199;28;20046;-69
2020/12/26 03:24:03;;;;;;;17.77;8.65;;;4.50;99.10;;;;;;4992005;28;20026;-71
2020/12/26 03:26:29;;;;;;;24.95;9.15;;;4.50;99.10;;;;;;4994486;28;20030;-70
2020/12/26 03:28:54;;;;;;;18.00;8.25;;;4.50;99.10;;;;;;4992931;28;20096;-70
2020/12/26 03:31:20;;;;;;;18.75;8.02;;;4.50;99.10;;;;;;4992784;28;20077;-69
2020/12/26 03:33:45;;;;;;;19.00;7.88;;;4.60;99.20;;;;;;4992694;28;20135;-69
2020/12/26 03:36:11;;;;;;;22.65;7.78;;;4.40;99.30;;;;;;4992405;28;20022;-70
2020/12/26 03:38:37;;;;;;;15.95;7.32;;;4.50;99.40;;;;;;4993087;28;20073;-70
2020/12/26 03:41:02;;;;;;;16.73;7.72;;;4.50;99.30;;;;;;4992716;28;20030;-70
2020/12/26 03:43:28;;;;;;;17.15;7.70;;;4.50;99.40;;;;;;4992599;28;20364;-71
2020/12/26 03:45:53;;;;;;;12.57;6.93;;;4.50;99.40;;;;;;4992902;28;20097;-69
2020/12/26 03:48:19;;;;;;;13.27;6.75;;;4.50;99.50;;;;;;4992664;28;20457;-70
2020/12/26 03:50:45;;;;;;;16.85;7.30;;;4.60;99.50;;;;;;4993051;28;20033;-71
2020/12/26 03:53:10;;;;;;;13.50;6.45;;;4.60;99.50;;;;;;4992703;28;20050;-70
2020/12/26 03:55:36;;;;;;;16.90;7.60;;;4.60;99.50;;;;;;4992501;28;20101;-70
2020/12/26 03:58:02;;;;;;;26.15;7.55;;;4.50;99.70;;;;;;4992213;28;20038;-70
2020/12/26 04:00:27;;;;;;;15.65;7.25;;;4.40;99.80;;;;;;4992248;28;20038;-70
2020/12/26 04:02:53;;;;;;;15.10;8.10;;;4.40;99.90;;;;;;4994238;28;20037;-69
2020/12/26 04:05:19;;;;;;;16.77;7.32;;;4.50;99.80;;;;;;4992192;28;20500;-69
2020/12/26 04:07:44;;;;;;;16.52;7.90;;;4.50;99.90;;;;;;4992472;28;20070;-71
2020/12/26 04:10:10;;;;;;;15.05;7.53;;;4.60;99.90;;;;;;4992089;28;20049;-71
2020/12/26 04:12:35;;;;;;;17.48;8.38;;;4.70;99.80;;;;;;4992254;28;20126;-70
2020/12/26 04:15:01;;;;;;;15.75;7.65;;;4.60;99.70;;;;;;4992690;28;20030;-70
2020/12/26 04:17:27;;;;;;;18.70;7.85;;;4.70;99.70;;;;;;4992176;28;20545;-70
2020/12/26 04:19:52;;;;;;;16.80;7.28;;;4.70;99.80;;;;;;4991027;28;20030;-70
2020/12/26 04:22:18;;;;;;;19.52;7.90;;;4.60;99.80;;;;;;4991978;28;20406;-69
2020/12/26 04:24:44;;;;;;;21.67;8.00;;;4.70;99.80;;;;;;4992142;28;20129;-70
2020/12/26 04:27:10;;;;;;;17.25;7.65;;;4.80;99.80;;;;;;4989326;28;20089;-71
2020/12/26 04:29:35;;;;;;;19.38;7.95;;;4.80;99.70;;;;;;4993671;28;20085;-70
2020/12/26 04:32:01;;;;;;;17.38;8.55;;;4.80;99.60;;;;;;4992207;28;20034;-70
2020/12/26 04:34:27;;;;;;;24.55;7.65;;;4.80;99.60;;;;;;4992319;28;20038;-70
2020/12/26 04:36:52;;;;;;;20.73;7.53;;;4.90;99.60;;;;;;4992180;28;20030;-69
2020/12/26 04:39:18;;;;;;;18.10;7.80;;;4.90;99.50;;;;;;4992128;28;20030;-70
2020/12/26 04:41:44;;;;;;;13.63;6.93;;;5.00;99.40;;;;;;4993745;28;20081;-69
2020/12/26 04:44:11;;;;;;;16.60;7.15;;;5.00;99.40;;;;;;4992181;28;20035;-69
2020/12/26 04:46:39;;;;;;;14.23;6.53;;;5.00;99.40;;;;;;4991166;28;20044;-70
2020/12/26 04:49:09;;;;;;;18.70;7.18;;;5.00;99.40;;;;;;4991876;28;20483;-70
2020/12/26 04:51:37;;;;;;;18.05;6.75;;;5.00;99.40;;;;;;4990743;28;20461;-70
2020/12/26 04:54:24;;;;;;;12.93;6.18;;;5.00;99.40;;;;;;4993400;28;20019;-69
2020/12/26 04:56:53;;;;;;;17.77;6.32;;;5.00;99.40;;;;;;4991676;28;20093;-69
2020/12/26 04:59:18;;;;;;;13.55;6.03;;;5.00;99.50;;;;;;4991914;28;20680;-70
2020/12/26 05:01:47;;;;;;;13.20;6.53;;;5.10;99.40;;;;;;4991965;28;20066;-70
2020/12/26 05:04:13;;;;;;;11.30;6.13;;;5.00;99.50;;;;;;4991712;28;20038;-70
2020/12/26 05:06:47;;;;;;;17.08;6.57;;;5.10;99.40;;;;;;4991867;28;20096;-71
2020/12/26 05:09:15;;;;;;;14.73;6.15;;;5.10;99.40;;;;;;4992883;28;20499;-69
2020/12/26 05:11:55;;;;;;;10.38;6.65;;;5.20;99.40;;;;;;4997006;28;20104;-69
2020/12/26 05:14:22;;;;;;;14.85;6.25;;;5.20;99.20;;;;;;4995694;28;20124;-71
2020/12/26 05:16:48;;;;;;;11.40;5.90;;;5.30;99.20;;;;;;4995546;28;20042;-70
2020/12/26 05:19:14;;;;;;;13.30;5.95;;;5.30;99.20;;;;;;4995296;28;20299;-70
2020/12/26 05:21:40;;;;;;;11.40;6.07;;;5.30;99.10;;;;;;4995197;28;20031;-70
2020/12/26 05:24:08;;;;;;;12.35;5.85;;;5.30;99.10;;;;;;4995153;28;20042;-69
2020/12/26 05:26:44;;;;;;;12.30;6.30;;;5.20;99.20;;;;;;4996918;28;20022;-71
2020/12/26 05:29:11;;;;;;;13.30;6.13;;;5.20;99.30;;;;;;4995047;28;20042;-71
2020/12/26 05:31:53;;;;;;;18.53;6.23;;;5.20;99.10;;;;;;4995071;28;20042;-70
2020/12/26 05:34:19;;;;;;;16.42;7.32;;;5.30;99.10;;;;;;4994013;28;20027;-70
2020/12/26 05:36:44;;;;;;;13.70;6.75;;;5.30;99.10;;;;;;4994888;28;20108;-70
2020/12/26 05:39:11;;;;;;;11.73;6.55;;;5.30;99.10;;;;;;4994804;28;20049;-70
2020/12/26 05:41:42;;;;;;;14.40;6.78;;;5.40;99.00;;;;;;4996525;28;20026;-71
2020/12/26 05:44:08;;;;;;;15.18;6.63;;;5.10;99.00;;;;;;4994945;28;20034;-70
2020/12/26 05:46:34;;;;;;;15.27;7.03;;;5.20;99.20;;;;;;4994878;28;20045;-71
2020/12/26 05:49:38;;;;;;;15.13;6.68;;;5.30;99.20;;;;;;4994012;28;20030;-70
2020/12/26 05:52:11;;;;;;;15.18;6.10;;;5.30;99.10;;;;;;4995204;28;20463;-70
2020/12/26 05:54:38;;;;;;;16.33;5.63;;;5.40;99.10;;;;;;4994346;28;20113;-70
2020/12/26 05:57:14;;;;;;;13.77;6.50;;;5.30;99.00;;;;;;4994403;28;20026;-71
2020/12/26 05:59:44;;;;;;;11.38;5.80;;;5.40;99.10;;;;;;4995898;28;20038;-71
2020/12/26 06:02:24;;;;;;;15.50;6.70;;;5.40;99.30;;;;;;4994397;28;20030;-70
2020/12/26 06:05:00;;;;;;;15.32;5.80;;;5.40;99.10;;;;;;4992900;28;20038;-70
2020/12/26 06:07:32;;;;;;;14.80;7.05;;;5.30;99.10;;;;;;4994364;28;20026;-70
2020/12/26 06:10:05;;;;;;;19.33;6.05;;;5.10;99.20;;;;;;4994582;28;20365;-70
2020/12/26 06:12:32;;;;;;;12.15;5.85;;;5.10;99.30;;;;;;4994289;28;20045;-71
2020/12/26 06:14:58;;;;;;;12.80;6.03;;;5.20;99.20;;;;;;4995784;28;20026;-70
2020/12/26 06:17:29;;;;;;;9.93;5.13;;;5.30;99.20;;;;;;4994293;28;20477;-71
2020/12/26 06:20:05;;;;;;;11.70;5.22;;;5.20;99.10;;;;;;4993478;28;20440;-70
2020/12/26 06:22:51;;;;;;;12.00;5.70;;;5.20;99.20;;;;;;4993819;28;20042;-70
2020/12/26 06:25:18;;;;;;;13.82;5.72;;;5.30;99.10;;;;;;4994270;28;20108;-69
2020/12/26 06:27:56;;;;;;;12.70;5.75;;;5.30;99.10;;;;;;4993814;28;20042;-71
2020/12/26 06:30:22;;;;;;;11.50;5.45;;;5.30;99.10;;;;;;4993881;28;20018;-70
2020/12/26 06:32:50;;;;;;;16.00;6.03;;;5.30;99.00;;;;;;4995967;28;20041;-69
2020/12/26 06:35:16;;;;;;;14.88;5.45;;;5.20;99.10;;;;;;4993981;28;20045;-69
2020/12/26 06:37:43;;;;;;;13.20;4.97;;;5.10;99.10;;;;;;4993748;28;20035;-71
2020/12/26 06:40:29;;;;;;;12.63;5.60;;;5.20;99.20;;;;;;4993703;28;20077;-71
2020/12/26 06:42:56;;;;;;;10.52;4.80;;;5.10;99.10;;;;;;4993760;28;20081;-70
2020/12/26 06:45:35;;;;;;;8.38;4.55;;;5.20;99.20;;;;;;4994108;28;20072;-70
2020/12/26 06:48:02;;;;;;;7.15;4.13;;;5.20;99.10;;;;;;4994897;28;20033;-70
2020/12/26 06:50:32;;;;;;;14.20;4.80;;;5.10;99.00;;;;;;4993820;28;20088;-69
2020/12/26 06:52:58;;;;;;;9.93;4.82;;;5.10;99.00;;;;;;4993466;28;20329;-69
2020/12/26 06:55:44;;;;;;;14.63;4.63;;;5.10;99.00;;;;;;4993427;28;20496;-70
2020/12/26 06:58:12;;;;;;;10.73;4.63;;;5.10;99.00;;;;;;4993475;28;20129;-70
2020/12/26 07:00:38;;;;;;;12.18;5.03;;;5.10;99.00;;;;;;4993450;28;20027;-70
2020/12/26 07:03:29;;;;;;;13.63;4.18;;;5.10;99.00;;;;;;4993035;28;20026;-71
2020/12/26 07:05:55;;;;;;;10.40;4.57;;;4.90;99.00;;;;;;4994714;28;20101;-71
2020/12/26 07:08:32;;;;;;;8.57;4.55;;;5.00;99.00;;;;;;4993191;28;20038;-71
2020/12/26 07:11:02;;;;;;;11.90;5.03;;;5.10;98.90;;;;;;4993254;28;20026;-71
2020/12/26 07:13:44;;;;;;;11.55;4.78;;;5.00;98.90;;;;;;5002497;28;20034;-70
2020/12/26 07:16:55;;;;;;;15.43;4.53;;;5.00;98.80;;;;;;5011698;28;20066;-70
2020/12/26 07:19:21;;;;;;;10.00;4.55;;;5.00;98.80;;;;;;5009487;28;20149;-70
2020/12/26 07:21:51;;;;;;;14.27;4.47;;;5.00;98.70;;;;;;5012879;28;20053;-71
2020/12/26 07:24:30;;;;;;;11.80;4.30;;;5.00;98.70;;;;;;5012868;28;20084;-70
2020/12/26 07:27:16;;;;;;;7.53;4.40;;;5.00;98.70;;;;;;5014056;28;20030;-70
2020/12/26 07:30:01;;;;;;;7.85;4.32;;;4.90;98.80;;;;;;4994855;28;20083;-72
2020/12/26 07:32:39;;;;;;;12.40;4.13;;;5.00;98.90;;;;;;5011049;28;20044;-71
2020/12/26 07:35:15;;;;;;;10.82;4.03;;;4.80;98.70;;;;;;5012438;28;20030;-72
2020/12/26 07:37:54;;;;;;;9.57;4.03;;;4.90;98.90;;;;;;5010903;28;20490;-71
2020/12/26 07:40:25;;;;;;;12.93;3.75;;;4.90;98.80;;;;;;5011456;28;20152;-72
2020/12/26 07:42:52;;;;;;;9.90;4.22;;;5.00;98.80;;;;;;5012577;28;20349;-72
2020/12/26 07:45:19;;;;;;;11.57;3.90;;;5.00;98.70;;;;;;5012078;28;20447;-71
2020/12/26 07:47:47;;;;;;;7.87;3.87;;;5.00;98.60;;;;;;5013677;28;20038;-71
2020/12/26 07:50:14;;;;;;;8.75;3.60;;;5.00;98.60;;;;;;5011967;28;20382;-71
2020/12/26 07:52:48;;;;;;;12.25;4.50;;;5.10;98.60;;;;;;5011879;28;20034;-72
2020/12/26 07:55:14;;;;;;;12.32;3.92;;;5.10;98.60;;;;;;5011828;28;20058;-71
2020/12/26 07:57:40;;;;;;;8.63;3.42;;;5.10;98.50;;;;;;5012060;28;20116;-71
2020/12/26 08:00:06;;;;;;;11.90;3.95;;;5.10;98.50;;;;;;5011879;28;20440;-71
2020/12/26 08:02:32;;;;;;;10.30;3.58;;;5.20;98.40;;;;;;5013802;28;20075;-69
2020/12/26 08:04:58;;;;;;;9.77;3.40;;;5.20;98.40;;;;;;5012321;28;20030;-69
2020/12/26 08:07:24;;;;;;;10.70;3.85;;;5.10;98.30;;;;;;5010769;28;20033;-71
2020/12/26 08:09:54;;;;;;;11.10;3.25;;;5.10;98.30;;;;;;5011848;28;20511;-70
2020/12/26 08:12:20;;;;;;;9.68;3.92;;;5.20;98.40;;;;;;5011926;28;20021;-71
2020/12/26 08:14:58;;;;;;;13.25;4.28;;;5.20;98.40;;;;;;5013336;28;20145;-69
2020/12/26 08:17:25;;;;;;;;;;;5.20;98.40;;;;;;5012420;28;20034;-71
2020/12/26 08:19:58;;;;;;;9.18;3.10;;;5.30;98.40;;;;;;5011798;28;19919;-70
2020/12/26 08:22:24;;;;;;;13.00;4.32;;;5.40;98.30;;;;;;5011901;28;20034;-71
2020/12/26 08:25:08;;;;;;;12.50;3.78;;;5.40;98.30;;;;;;5011777;28;20030;-73
2020/12/26 08:27:35;;;;;;;14.13;4.82;;;5.40;98.20;;;;;;5011590;28;20088;-72
2020/12/26 08:30:08;;;;;;;12.77;3.78;;;5.50;98.10;;;;;;5013271;28;20189;-71
2020/12/26 08:32:50;;;;;;;6.90;3.75;;;5.50;98.20;;;;;;5010879;28;20061;-71
2020/12/26 08:35:17;;;;;;;12.15;3.55;;;5.50;98.30;;;;;;5010856;28;20362;-71
2020/12/26 08:37:47;;;;;;;10.95;4.35;;;5.60;98.20;;;;;;5011591;28;20406;-70
2020/12/26 08:40:16;;;;;;;7.13;3.90;;;5.60;98.20;;;;;;5011681;28;20100;-72
2020/12/26 08:42:42;;;;;;;10.10;4.00;;;5.50;98.00;;;;;;5011591;28;20038;-70
2020/12/26 08:45:24;;;;;;;5.53;3.47;;;5.50;98.00;;;;;;5013410;28;20026;-71
2020/12/26 08:47:51;;;;;;;9.85;4.70;;;5.50;98.10;;;;;;5017006;28;20025;-71
2020/12/26 08:50:16;;;;;;;10.40;4.70;;;5.60;98.20;;;;;;5015567;28;20435;-72
2020/12/26 08:52:44;;;;;;;7.20;3.85;;;5.60;98.10;;;;;;5015174;28;20129;-71
2020/12/26 08:55:09;;;;;;;10.43;3.87;;;5.80;98.10;;;;;;5014764;28;20124;-72
2020/12/26 08:57:36;;;;;;;11.32;4.00;;;5.70;98.00;;;;;;5015125;28;20034;-76
2020/12/26 09:00:21;;;;;;;10.07;4.63;;;5.70;98.00;;;;;;5016523;28;20026;-74
2020/12/26 09:02:51;;;;;;;13.32;3.65;;;5.80;98.00;;;;;;5015276;28;20038;-75
2020/12/26 09:05:31;;;;;;;13.63;4.10;;;5.80;97.90;;;;;;5015005;28;20444;-75
2020/12/26 09:08:07;;;;;;;10.68;4.50;;;5.90;97.80;;;;;;5014011;28;20168;-77
2020/12/26 09:10:37;;;;;;;9.55;4.05;;;5.80;97.80;;;;;;5014842;28;20030;-75
2020/12/26 09:13:12;;;;;;;9.00;4.72;;;5.90;97.70;;;;;;5015241;28;20030;-72
2020/12/26 09:15:55;;;;;;;14.20;4.28;;;5.90;97.70;;;;;;5014697;28;20107;-74
2020/12/26 09:18:52;;;;;;;10.77;4.32;;;6.00;97.70;;;;;;5014977;28;20041;-76
2020/12/26 09:21:26;;;;;;;9.20;4.05;;;6.00;97.60;;;;;;5014786;28;20022;-73
2020/12/26 09:23:53;;;;;;;8.82;3.60;;;6.10;97.50;;;;;;5016424;28;20022;-72
2020/12/26 09:26:24;;;;;;;15.70;4.82;;;6.20;97.50;;;;;;5014682;28;20380;-74
2020/12/26 09:28:50;;;;;;;17.30;4.50;;;6.10;97.40;;;;;;5014729;28;20042;-72
2020/12/26 09:31:18;;;;;;;14.48;4.65;;;6.20;97.50;;;;;;5014698;28;20048;-73
2020/12/26 09:33:44;;;;;;;10.98;4.18;;;6.10;97.50;;;;;;5014718;28;20045;-73
2020/12/26 09:36:16;;;;;;;7.03;3.65;;;6.20;97.50;;;;;;5014571;28;20045;-74
2020/12/26 09:38:42;;;;;;;15.95;4.57;;;6.30;97.50;;;;;;5016083;28;20049;-74
2020/12/26 09:41:15;;;;;;;6.82;4.50;;;6.30;97.50;;;;;;5014318;28;20068;-74
2020/12/26 09:43:49;;;;;;;7.60;4.35;;;6.40;97.40;;;;;;5013532;28;20030;-73
2020/12/26 09:46:16;;;;;;;17.02;5.10;;;6.40;97.30;;;;;;5014203;28;20046;-73
2020/12/26 09:48:42;;;;;;;8.25;4.40;;;6.50;97.50;;;;;;5013936;28;20030;-71
2020/12/26 09:51:19;;;;;;;9.10;4.03;;;6.50;97.30;;;;;;5012612;28;20036;-70
2020/12/26 09:53:45;;;;;;;9.63;4.00;;;6.50;97.40;;;;;;5014828;28;20121;-72
2020/12/26 09:56:12;;;;;;;13.15;4.25;;;6.50;97.30;;;;;;5013192;28;20085;-68
2020/12/26 09:58:42;;;;;;;8.70;4.72;;;6.50;97.40;;;;;;5014236;28;20121;-70
2020/12/26 10:01:12;;;;;;;9.23;5.10;;;6.60;97.40;;;;;;5014179;28;20026;-70
2020/12/26 10:03:38;;;;;;;9.48;4.95;;;6.60;97.30;;;;;;5012888;28;20419;-71
2020/12/26 10:06:03;;;;;;;11.05;4.97;;;6.50;97.30;;;;;;5014177;28;20515;-73
2020/12/26 10:08:30;;;;;;;9.43;4.50;;;6.60;97.40;;;;;;5015470;28;20030;-71
2020/12/26 10:10:56;;;;;;;8.82;5.57;;;6.60;97.30;;;;;;5014028;28;20057;-71
2020/12/26 10:13:22;;;;;;;13.75;5.93;;;6.80;97.30;;;;;;5013244;28;20053;-70
2020/12/26 10:15:47;;;;;;;16.20;5.85;;;6.70;97.10;;;;;;5014040;28;20034;-70
2020/12/26 10:18:13;;;;;;;11.18;5.95;;;6.70;97.20;;;;;;5014116;28;20064;-69
2020/12/26 10:20:39;;;;;;;15.82;6.40;;;6.70;97.20;;;;;;5015338;28;20025;-68
2020/12/26 10:23:04;;;;;;;11.77;5.82;;;6.70;97.10;;;;;;5013832;28;20038;-69
2020/12/26 10:25:30;;;;;;;10.95;5.88;;;6.70;97.20;;;;;;5013479;28;20345;-73
2020/12/26 10:27:56;;;;;;;15.30;6.20;;;6.60;97.40;;;;;;5013289;28;20472;-72
2020/12/26 10:30:21;;;;;;;13.10;6.38;;;6.70;97.30;;;;;;5012286;28;20368;-71
2020/12/26 10:32:47;;;;;;;14.05;6.70;;;6.80;97.40;;;;;;5015294;28;20014;-67
2020/12/26 10:35:14;;;;;;;16.67;5.95;;;6.80;97.20;;;;;;5013528;28;20349;-67
2020/12/26 10:37:40;;;;;;;10.68;6.03;;;6.90;97.20;;;;;;5013368;28;20052;-67
2020/12/26 10:40:06;;;;;;;14.45;6.32;;;6.80;97.00;;;;;;5013213;28;20396;-70
2020/12/26 10:42:32;;;;;;;11.82;5.88;;;7.10;98.40;;;;;;5013305;28;20029;-71
2020/12/26 10:44:58;;;;;;;16.50;6.22;;;7.10;97.00;;;;;;5014869;28;20034;-70
2020/12/26 10:47:23;;;;;;;15.50;6.43;;;6.90;96.70;;;;;;5013072;28;20038;-73
2020/12/26 10:49:49;;;;;;;11.80;6.78;;;6.90;96.90;;;;;;5013213;28;20064;-72
2020/12/26 10:52:15;;;;;;;19.33;7.15;;;6.80;96.80;;;;;;5011933;28;20041;-71
2020/12/26 10:54:41;;;;;;;12.50;7.00;;;6.80;96.80;;;;;;5013103;28;20361;-74
2020/12/26 10:57:06;;;;;;;18.38;8.20;;;6.70;96.70;;;;;;5013009;28;20053;-69
2020/12/26 10:59:32;;;;;;;19.70;7.45;;;6.50;96.80;;;;;;5013408;28;20468;-74
2020/12/26 11:01:58;;;;;;;16.17;8.48;;;6.40;96.90;;;;;;5011580;28;20065;-76
2020/12/26 11:04:23;;;;;;;13.18;7.88;;;6.60;97.00;;;;;;5012803;28;20057;-73
2020/12/26 11:06:49;;;;;;;15.05;8.98;;;6.70;96.90;;;;;;5011013;28;20044;-72
2020/12/26 11:09:18;;;;;;;12.63;7.68;;;6.50;96.80;;;;;;5011763;28;20022;-70
2020/12/26 11:11:51;;;;;;;12.65;8.23;;;6.60;96.90;;;;;;5014341;28;20103;-70
2020/12/26 11:14:17;;;;;;;15.07;8.57;;;6.50;97.10;;;;;;5012656;28;20543;-75
2020/12/26 11:16:53;;;;;;;15.65;9.10;;;6.50;97.00;;;;;;5011727;28;20384;-73
2020/12/26 11:19:19;;;;;;;13.93;8.60;;;6.70;97.10;;;;;;5012615;28;20038;-69
2020/12/26 11:21:49;;;;;;;19.23;8.70;;;6.70;97.00;;;;;;5012786;28;20080;-69
2020/12/26 11:24:15;;;;;;;16.60;9.30;;;6.70;97.00;;;;;;5012625;28;20018;-71
2020/12/26 11:26:41;;;;;;;22.60;9.55;;;6.70;96.80;;;;;;5013085;28;20037;-72
2020/12/26 11:29:06;;;;;;;17.42;8.40;;;6.70;97.00;;;;;;5012412;28;20042;-71
2020/12/26 11:31:32;;;;;;;16.55;9.20;;;6.80;96.90;;;;;;5012462;28;20092;-69
2020/12/26 11:33:58;;;;;;;16.85;9.05;;;6.80;96.80;;;;;;5012440;28;20034;-73
2020/12/26 11:36:26;;;;;;;16.17;8.95;;;6.70;96.70;;;;;;5012362;28;20149;-74
2020/12/26 11:38:52;;;;;;;19.95;9.02;;;6.60;96.80;;;;;;5013029;28;20062;-72
2020/12/26 11:41:24;;;;;;;18.50;9.07;;;6.70;96.90;;;;;;5012484;28;20041;-69
2020/12/26 11:43:50;;;;;;;19.98;9.13;;;6.70;96.80;;;;;;5012076;28;20045;-69
2020/12/26 11:46:16;;;;;;;23.80;9.93;;;6.70;96.80;;;;;;5012147;28;20030;-70
2020/12/26 11:48:42;;;;;;;18.00;9.70;;;6.70;96.90;;;;;;5011962;28;20038;-68
2020/12/26 11:51:09;;;;;;;23.02;9.35;;;6.70;96.80;;;;;;5011956;28;20456;-72
2020/12/26 11:53:35;;;;;;;16.38;10.07;;;6.70;96.90;;;;;;5013590;28;20088;-73
2020/12/26 11:56:00;;;;;;;15.80;8.70;;;6.80;96.80;;;;;;5010859;28;20058;-72
2020/12/26 11:58:26;;;;;;;21.30;10.15;;;6.80;96.80;;;;;;5011903;28;20042;-72
2020/12/26 12:00:55;;;;;;;15.73;9.15;;;6.80;96.70;;;;;;5012024;28;20037;-73
2020/12/26 12:03:21;;;;;;;18.08;9.02;;;6.80;96.70;;;;;;5011995;28;20493;-72
2020/12/26 12:05:47;;;;;;;16.60;8.65;;;6.80;96.60;;;;;;5013478;28;20025;-73
2020/12/26 12:08:13;;;;;;;21.92;8.88;;;6.90;96.60;;;;;;5011102;28;20041;-70
2020/12/26 12:10:40;;;;;;;18.40;8.57;;;6.90;96.50;;;;;;4992424;28;20038;-72
2020/12/26 12:13:06;;;;;;;14.55;7.53;;;6.80;96.50;;;;;;4992221;28;20450;-72
2020/12/26 12:15:32;;;;;;;15.82;8.20;;;6.90;96.60;;;;;;4992007;28;20038;-72
2020/12/26 12:18:00;;;;;;;15.07;8.40;;;6.90;96.60;;;;;;4994142;28;20014;-72
2020/12/26 12:20:29;;;;;;;20.90;9.05;;;7.00;96.60;;;;;;4992243;28;20461;-72
2020/12/26 12:22:56;;;;;;;15.68;7.80;;;7.00;97.00;;;;;;4992424;28;20044;-70
2020/12/26 12:25:22;;;;;;;15.90;7.55;;;7.20;96.90;;;;;;4992131;28;20035;-71
2020/12/26 12:27:48;;;;;;;17.30;7.80;;;7.40;96.90;;;;;;4991984;28;20423;-71
2020/12/26 12:30:14;;;;;;;13.15;6.75;;;7.60;96.60;;;;;;4991744;28;20113;-68
2020/12/26 12:32:40;;;;;;;18.60;7.93;;;7.40;95.80;;;;;;4992577;28;20030;-70
2020/12/26 12:35:06;;;;;;;15.18;7.72;;;7.20;95.80;;;;;;4992116;28;20038;-70
2020/12/26 12:37:32;;;;;;;13.48;7.15;;;7.20;96.00;;;;;;4992120;28;20516;-69
2020/12/26 12:39:58;;;;;;;9.77;6.43;;;7.20;95.90;;;;;;4991013;28;20133;-70
2020/12/26 12:42:30;;;;;;;9.88;6.22;;;7.20;95.90;;;;;;4992060;28;20039;-69
2020/12/26 12:44:56;;;;;;;9.85;5.75;;;7.20;95.80;;;;;;4993618;28;20087;-68
2020/12/26 12:47:26;;;;;;;12.15;6.00;;;7.00;95.40;;;;;;4991964;28;20046;-70
2020/12/26 12:49:53;;;;;;;9.68;5.20;;;7.00;95.50;;;;;;4991741;28;20342;-70
2020/12/26 12:52:19;;;;;;;12.02;5.70;;;6.90;95.60;;;;;;4992132;28;20547;-69
2020/12/26 12:54:45;;;;;;;14.50;5.57;;;6.90;95.50;;;;;;4991623;28;20066;-69